Time;durP1;ratioP1;P1;durP2;ratioP2;P2;SDS_P1;SDS_P2;PMS_P1;PMS_P2;Temp;Humidity;BMP_temperature;BMP_pressure;BME280_temperature;BME280_humidity;BME280_pressure;Samples;Min_cycle;Max_cycle;Signal;HPM_P1;HPM_P2
2022/10/21 00:00:38;;;;;;;39.35;24.85;;;;;;;;;;5052844;28;20044;-69
2022/10/21 00:03:04;;;;;;;42.03;24.80;;;;;;;;;;5050587;28;20047;-69
2022/10/21 00:05:29;;;;;;;48.13;27.48;;;;;;;;;;5051765;28;20417;-69
2022/10/21 00:07:55;;;;;;;42.47;25.08;;;;;;;;;;5046182;28;20028;-69
2022/10/21 00:10:21;;;;;;;41.95;25.30;;;;;;;;;;5043724;28;20547;-68
2022/10/21 00:12:47;;;;;;;40.65;24.45;;;;;;;;;;5045926;28;20040;-68
2022/10/21 00:15:12;;;;;;;41.40;25.27;;;;;;;;;;5044412;28;20033;-69
2022/10/21 00:17:40;;;;;;;45.03;25.40;;;;;;;;;;5044965;28;20128;-70
2022/10/21 00:20:08;;;;;;;42.42;25.10;;;;;;;;;;5044938;28;20037;-71
2022/10/21 00:22:34;;;;;;;39.17;24.73;;;;;;;;;;5037886;28;20437;-69
2022/10/21 00:24:59;;;;;;;40.88;24.30;;;;;;;;;;5039375;28;20071;-69
2022/10/21 00:27:25;;;;;;;34.60;23.50;;;;;;;;;;5043558;28;20044;-69
2022/10/21 00:29:51;;;;;;;39.75;23.98;;;;;;;;;;5037034;28;20048;-70
2022/10/21 00:32:16;;;;;;;45.30;23.98;;;;;;;;;;5043722;28;20032;-69
2022/10/21 00:34:42;;;;;;;35.83;22.35;;;;;;;;;;5038138;28;20025;-69
2022/10/21 00:37:11;;;;;;;35.00;23.00;;;;;;;;;;5048305;28;20124;-70
2022/10/21 00:39:37;;;;;;;36.83;23.77;;;;;;;;;;5042292;28;20149;-69
2022/10/21 00:42:04;;;;;;;35.33;22.17;;;;;;;;;;5043112;28;20124;-70
2022/10/21 00:44:31;;;;;;;32.75;22.00;;;;;;;;;;5050716;28;20077;-69
2022/10/21 00:47:11;;;;;;;35.78;21.75;;;;;;;;;;5037730;28;20102;-69
2022/10/21 00:49:58;;;;;;;33.33;22.10;;;;;;;;;;5039304;28;20040;-69
2022/10/21 00:52:26;;;;;;;37.05;21.65;;;;;;;;;;5040375;28;20037;-69
2022/10/21 00:54:55;;;;;;;30.05;20.25;;;;;;;;;;5041222;28;20061;-69
2022/10/21 00:57:22;;;;;;;33.78;20.83;;;;;;;;;;5049064;28;20041;-69
2022/10/21 00:59:51;;;;;;;40.88;22.25;;;;;;;;;;5042228;28;20611;-69
2022/10/21 01:02:16;;;;;;;34.30;20.98;;;;;;;;;;5039164;28;20032;-69
2022/10/21 01:04:43;;;;;;;29.40;19.63;;;;;;;;;;5037770;28;20029;-69
2022/10/21 01:07:08;;;;;;;30.77;20.80;;;;;;;;;;5039630;28;20079;-69
2022/10/21 01:09:34;;;;;;;29.48;18.33;;;;;;;;;;5040161;28;20045;-69
2022/10/21 01:12:02;;;;;;;28.85;18.20;;;;;;;;;;5035358;28;20037;-67
2022/10/21 01:14:46;;;;;;;25.70;16.35;;;;;;;;;;5039310;28;20083;-70
2022/10/21 01:17:31;;;;;;;22.95;16.00;;;;;;;;;;5040233;28;20487;-69
2022/10/21 01:20:03;;;;;;;24.15;15.63;;;;;;;;;;5038725;28;20156;-71
2022/10/21 01:22:55;;;;;;;28.00;16.30;;;;;;;;;;5039643;28;20041;-69
2022/10/21 01:25:45;;;;;;;28.75;16.52;;;;;;;;;;5039902;28;20098;-69
2022/10/21 01:28:37;;;;;;;28.90;15.95;;;;;;;;;;5040897;28;20036;-69
2022/10/21 01:31:02;;;;;;;27.42;16.02;;;;;;;;;;4997025;28;20378;-68
2022/10/21 01:33:38;;;;;;;29.40;15.85;;;;;;;;;;5038844;28;20031;-68
2022/10/21 01:36:09;;;;;;;23.75;15.13;;;;;;;;;;5042144;28;20072;-68
2022/10/21 01:38:43;;;;;;;23.80;15.07;;;;;;;;;;5047567;28;20052;-68
2022/10/21 01:41:20;;;;;;;27.27;15.20;;;;;;;;;;5058081;28;20116;-69
2022/10/21 01:43:53;;;;;;;27.05;15.10;;;;;;;;;;5050507;28;20059;-69
2022/10/21 01:46:26;;;;;;;36.72;15.60;;;;;;;;;;5037416;28;20260;-69
2022/10/21 01:48:59;;;;;;;;;;;;;;;;;;5047080;28;20068;-67
2022/10/21 01:51:26;;;;;;;27.90;15.32;;;;;;;;;;5048858;28;19922;-69
2022/10/21 01:54:02;;;;;;;31.33;15.30;;;;;;;;;;5044638;28;20029;-70
2022/10/21 01:56:29;;;;;;;37.50;14.85;;;;;;;;;;5045583;28;20056;-69
2022/10/21 01:58:55;;;;;;;42.72;14.90;;;;;;;;;;5042644;28;20043;-69
2022/10/21 02:01:21;;;;;;;23.10;14.25;;;;;;;;;;5042750;28;20045;-69
2022/10/21 02:03:52;;;;;;;46.38;15.20;;;;;;;;;;5042657;28;20049;-69
2022/10/21 02:06:17;;;;;;;23.50;15.07;;;;;;;;;;5050577;28;20405;-69
2022/10/21 02:08:43;;;;;;;28.15;14.50;;;;;;;;;;5049841;28;20043;-69
2022/10/21 02:11:11;;;;;;;21.90;14.23;;;;;;;;;;5043727;28;20036;-69
2022/10/21 02:13:44;;;;;;;26.55;13.88;;;;;;;;;;5049571;28;20025;-69
2022/10/21 02:16:15;;;;;;;22.77;14.45;;;;;;;;;;5040048;28;20500;-69
2022/10/21 02:18:40;;;;;;;29.83;14.07;;;;;;;;;;5043059;28;20091;-69
2022/10/21 02:21:10;;;;;;;30.55;13.88;;;;;;;;;;5044655;28;20068;-67
2022/10/21 02:23:51;;;;;;;20.85;13.10;;;;;;;;;;5044678;28;20040;-67
2022/10/21 02:26:17;;;;;;;25.52;13.13;;;;;;;;;;5043533;28;20057;-67
2022/10/21 02:28:42;;;;;;;35.55;14.25;;;;;;;;;;5044249;28;20060;-67
2022/10/21 02:31:33;;;;;;;20.95;13.85;;;;;;;;;;5041031;28;20120;-69
2022/10/21 02:34:05;;;;;;;29.77;13.73;;;;;;;;;;5042300;28;20413;-69
2022/10/21 02:36:41;;;;;;;28.58;13.85;;;;;;;;;;5041464;28;20040;-69
2022/10/21 02:39:17;;;;;;;41.17;13.77;;;;;;;;;;5048121;28;20122;-68
2022/10/21 02:41:44;;;;;;;25.98;13.93;;;;;;;;;;5051851;28;20114;-68
2022/10/21 02:44:10;;;;;;;25.05;13.57;;;;;;;;;;5046378;28;20029;-68
2022/10/21 02:46:39;;;;;;;27.10;13.35;;;;;;;;;;5041213;28;20412;-71
2022/10/21 02:49:05;;;;;;;19.15;13.25;;;;;;;;;;5039911;28;20047;-69
2022/10/21 02:51:30;;;;;;;22.85;14.30;;;;;;;;;;5044281;28;20048;-67
2022/10/21 02:53:56;;;;;;;25.05;14.32;;;;;;;;;;5049252;28;20130;-69
2022/10/21 02:56:22;;;;;;;20.55;13.85;;;;;;;;;;5049524;28;20048;-67
2022/10/21 02:58:47;;;;;;;23.63;14.02;;;;;;;;;;5048041;28;20025;-70
2022/10/21 03:01:13;;;;;;;21.23;12.88;;;;;;;;;;5049312;28;20124;-68
2022/10/21 03:03:38;;;;;;;20.10;13.65;;;;;;;;;;5048681;28;20400;-67
2022/10/21 03:06:04;;;;;;;22.40;13.90;;;;;;;;;;5049403;28;20057;-69
2022/10/21 03:08:29;;;;;;;19.27;13.43;;;;;;;;;;5048238;28;20036;-67
2022/10/21 03:10:55;;;;;;;18.75;12.45;;;;;;;;;;5044019;28;20522;-67
2022/10/21 03:13:21;;;;;;;22.67;12.50;;;;;;;;;;5042832;28;20810;-68
2022/10/21 03:15:50;;;;;;;21.38;13.30;;;;;;;;;;5045962;28;20159;-68
2022/10/21 03:18:16;;;;;;;18.33;12.65;;;;;;;;;;5048897;28;20032;-70
2022/10/21 03:20:42;;;;;;;21.77;13.40;;;;;;;;;;5048253;28;20160;-69
2022/10/21 03:23:08;;;;;;;18.95;12.43;;;;;;;;;;5047664;28;20876;-69
2022/10/21 03:25:33;;;;;;;18.85;11.57;;;;;;;;;;5041323;28;20119;-70
2022/10/21 03:27:59;;;;;;;16.17;11.60;;;;;;;;;;5043594;28;20084;-69
2022/10/21 03:30:24;;;;;;;19.15;11.63;;;;;;;;;;5047760;28;20033;-67
2022/10/21 03:32:49;;;;;;;17.50;10.88;;;;;;;;;;5045700;28;20037;-69
2022/10/21 03:35:15;;;;;;;19.20;12.15;;;;;;;;;;5040642;28;20041;-69
2022/10/21 03:37:40;;;;;;;18.70;11.18;;;;;;;;;;5038967;28;20027;-70
2022/10/21 03:40:06;;;;;;;15.32;10.70;;;;;;;;;;5044959;28;20041;-69
2022/10/21 03:42:32;;;;;;;19.70;10.77;;;;;;;;;;5044951;28;20029;-69
2022/10/21 03:44:57;;;;;;;16.15;10.45;;;;;;;;;;5045218;28;20039;-69
2022/10/21 03:47:22;;;;;;;16.70;10.30;;;;;;;;;;5042732;28;20090;-69
2022/10/21 03:49:48;;;;;;;17.45;11.35;;;;;;;;;;5042755;28;20040;-70
2022/10/21 03:52:13;;;;;;;16.13;11.40;;;;;;;;;;5046476;28;20136;-69
2022/10/21 03:54:39;;;;;;;15.77;10.55;;;;;;;;;;5042562;28;20068;-67
2022/10/21 03:57:04;;;;;;;15.93;9.88;;;;;;;;;;5041509;28;20049;-69
2022/10/21 03:59:29;;;;;;;12.88;9.88;;;;;;;;;;5047701;28;20041;-69
2022/10/21 04:01:55;;;;;;;14.85;9.98;;;;;;;;;;5043120;28;20502;-69
2022/10/21 04:04:20;;;;;;;13.48;9.75;;;;;;;;;;5059319;28;20041;-69
2022/10/21 04:06:46;;;;;;;12.15;9.00;;;;;;;;;;5042655;28;20416;-69
2022/10/21 04:09:11;;;;;;;20.50;9.77;;;;;;;;;;5040971;28;20044;-69
2022/10/21 04:11:36;;;;;;;16.55;10.43;;;;;;;;;;5043908;28;20047;-69
2022/10/21 04:14:02;;;;;;;16.25;10.48;;;;;;;;;;5041379;28;20158;-69
2022/10/21 04:16:28;;;;;;;16.00;10.43;;;;;;;;;;5006685;28;20120;-69
2022/10/21 04:18:53;;;;;;;15.20;10.07;;;;;;;;;;5035848;28;20037;-69
2022/10/21 04:21:19;;;;;;;17.15;10.10;;;;;;;;;;5045374;28;20116;-69
2022/10/21 04:23:44;;;;;;;14.35;10.45;;;;;;;;;;5043430;28;20029;-68
2022/10/21 04:26:10;;;;;;;15.00;10.57;;;;;;;;;;5043605;28;20032;-69
2022/10/21 04:28:36;;;;;;;16.95;10.38;;;;;;;;;;5034936;28;20171;-69
2022/10/21 04:31:01;;;;;;;20.15;9.85;;;;;;;;;;5037488;28;20041;-69
2022/10/21 04:33:27;;;;;;;19.73;10.90;;;;;;;;;;5044494;28;20305;-69
2022/10/21 04:35:53;;;;;;;17.77;10.85;;;;;;;;;;5042638;28;20037;-69
2022/10/21 04:38:19;;;;;;;16.13;10.57;;;;;;;;;;5042371;28;20036;-69
2022/10/21 04:40:44;;;;;;;18.55;10.23;;;;;;;;;;5043400;28;20032;-69
2022/10/21 04:43:09;;;;;;;17.58;11.15;;;;;;;;;;5043943;28;20480;-69
2022/10/21 04:45:38;;;;;;;16.40;11.05;;;;;;;;;;5042692;28;20029;-69
2022/10/21 04:48:04;;;;;;;17.48;11.57;;;;;;;;;;5041195;28;20079;-70
2022/10/21 04:50:30;;;;;;;21.58;11.85;;;;;;;;;;5039512;28;20479;-69
2022/10/21 04:52:55;;;;;;;21.52;11.10;;;;;;;;;;5040051;28;20017;-67
2022/10/21 04:55:20;;;;;;;17.02;10.68;;;;;;;;;;5053275;28;20098;-69
2022/10/21 04:57:46;;;;;;;16.83;11.38;;;;;;;;;;5047286;28;20044;-69
2022/10/21 05:00:15;;;;;;;19.33;11.80;;;;;;;;;;5044219;28;20037;-69
2022/10/21 05:02:40;;;;;;;17.42;11.43;;;;;;;;;;5040204;28;20037;-69
2022/10/21 05:05:06;;;;;;;19.15;10.95;;;;;;;;;;5035788;28;20036;-69
2022/10/21 05:07:31;;;;;;;18.75;11.07;;;;;;;;;;5044723;28;20495;-69
2022/10/21 05:09:57;;;;;;;21.20;11.48;;;;;;;;;;5042797;28;20044;-69
2022/10/21 05:12:22;;;;;;;16.27;11.18;;;;;;;;;;5040528;28;20061;-67
2022/10/21 05:14:47;;;;;;;17.65;11.13;;;;;;;;;;5038446;28;20037;-69
2022/10/21 05:17:13;;;;;;;26.83;11.65;;;;;;;;;;5043778;28;20413;-67
2022/10/21 05:19:38;;;;;;;20.58;10.80;;;;;;;;;;5042212;28;20082;-67
2022/10/21 05:22:03;;;;;;;21.65;11.65;;;;;;;;;;5043162;28;20071;-69
2022/10/21 05:24:29;;;;;;;16.83;10.70;;;;;;;;;;5039182;28;20029;-68
2022/10/21 05:26:54;;;;;;;17.02;11.38;;;;;;;;;;5042921;28;20037;-68
2022/10/21 05:29:20;;;;;;;17.90;10.77;;;;;;;;;;5039465;28;20738;-69
2022/10/21 05:31:45;;;;;;;25.48;13.43;;;;;;;;;;5045322;28;20067;-68
2022/10/21 05:34:10;;;;;;;19.85;12.18;;;;;;;;;;5040099;28;20052;-68
2022/10/21 05:36:36;;;;;;;22.38;12.32;;;;;;;;;;5043946;28;20044;-68
2022/10/21 05:39:01;;;;;;;21.83;12.02;;;;;;;;;;5042478;28;20037;-68
2022/10/21 05:41:27;;;;;;;21.33;12.60;;;;;;;;;;5041829;28;20048;-68
2022/10/21 05:43:52;;;;;;;28.25;13.25;;;;;;;;;;5047311;28;20051;-68
2022/10/21 05:46:18;;;;;;;28.35;14.02;;;;;;;;;;5038182;28;20045;-68
2022/10/21 05:48:43;;;;;;;25.00;13.57;;;;;;;;;;5039745;28;20056;-68
2022/10/21 05:51:08;;;;;;;38.78;14.30;;;;;;;;;;5042540;28;20131;-68
2022/10/21 05:53:34;;;;;;;33.10;14.70;;;;;;;;;;5046263;28;20396;-68
2022/10/21 05:56:02;;;;;;;32.33;14.32;;;;;;;;;;5041041;28;20021;-68
2022/10/21 05:58:28;;;;;;;35.00;14.95;;;;;;;;;;5044218;28;20056;-68
2022/10/21 06:00:54;;;;;;;37.10;15.40;;;;;;;;;;5044839;28;20056;-68
2022/10/21 06:03:28;;;;;;;28.45;14.07;;;;;;;;;;5043837;28;20060;-68
2022/10/21 06:05:57;;;;;;;29.17;14.32;;;;;;;;;;5040743;28;20036;-68
2022/10/21 06:08:23;;;;;;;27.83;13.77;;;;;;;;;;5036498;28;20044;-68
2022/10/21 06:10:48;;;;;;;27.42;14.38;;;;;;;;;;5033470;28;20559;-69
2022/10/21 06:13:13;;;;;;;27.65;14.95;;;;;;;;;;5033943;28;20060;-70
2022/10/21 06:15:39;;;;;;;27.33;13.55;;;;;;;;;;5033406;28;20076;-70
2022/10/21 06:18:05;;;;;;;27.55;14.13;;;;;;;;;;5038259;28;20630;-67
2022/10/21 06:20:30;;;;;;;27.88;14.18;;;;;;;;;;5044362;28;20045;-67
2022/10/21 06:22:58;;;;;;;29.77;14.57;;;;;;;;;;5048631;28;20136;-67
2022/10/21 06:25:23;;;;;;;29.48;14.88;;;;;;;;;;5040129;28;20477;-68
2022/10/21 06:27:50;;;;;;;30.77;15.25;;;;;;;;;;5049795;28;20040;-69
2022/10/21 06:30:16;;;;;;;31.52;15.30;;;;;;;;;;5043973;28;20045;-67
2022/10/21 06:32:41;;;;;;;30.20;15.63;;;;;;;;;;5039935;28;21226;-68
2022/10/21 06:35:06;;;;;;;45.03;16.63;;;;;;;;;;5039828;28;20021;-69
2022/10/21 06:37:32;;;;;;;36.30;16.52;;;;;;;;;;5037638;28;20523;-67
2022/10/21 06:39:57;;;;;;;42.88;17.73;;;;;;;;;;5055004;28;20408;-67
2022/10/21 06:42:23;;;;;;;34.40;16.48;;;;;;;;;;5037735;28;20037;-71
2022/10/21 06:44:48;;;;;;;32.35;15.50;;;;;;;;;;5036188;28;20099;-68
2022/10/21 06:47:13;;;;;;;37.97;16.42;;;;;;;;;;5037181;28;20018;-68
2022/10/21 06:49:39;;;;;;;31.52;15.48;;;;;;;;;;5037893;28;20035;-68
2022/10/21 06:52:04;;;;;;;28.25;15.27;;;;;;;;;;5037584;28;20159;-68
2022/10/21 06:54:30;;;;;;;29.60;14.40;;;;;;;;;;5055399;28;20041;-68
2022/10/21 06:56:55;;;;;;;22.52;12.80;;;;;;;;;;5072534;28;20078;-68
2022/10/21 06:59:20;;;;;;;22.67;13.48;;;;;;;;;;5046763;28;20401;-68
2022/10/21 07:01:46;;;;;;;25.73;13.40;;;;;;;;;;5041730;28;20023;-68
2022/10/21 07:04:13;;;;;;;25.48;12.60;;;;;;;;;;5035944;28;20049;-68
2022/10/21 07:06:45;;;;;;;29.23;13.40;;;;;;;;;;5040100;28;20041;-68
2022/10/21 07:09:10;;;;;;;24.90;12.40;;;;;;;;;;5033868;28;20583;-67
2022/10/21 07:11:36;;;;;;;26.13;12.68;;;;;;;;;;5039500;28;20123;-68
2022/10/21 07:14:02;;;;;;;20.00;11.65;;;;;;;;;;5033208;28;21606;-67
2022/10/21 07:16:31;;;;;;;20.00;10.55;;;;;;;;;;5042283;28;20056;-67
2022/10/21 07:18:56;;;;;;;17.17;10.52;;;;;;;;;;5043435;28;20072;-67
2022/10/21 07:21:25;;;;;;;18.13;9.45;;;;;;;;;;5038706;28;20096;-68
2022/10/21 07:23:52;;;;;;;18.38;9.48;;;;;;;;;;5037172;28;20102;-68
2022/10/21 07:26:19;;;;;;;17.15;9.52;;;;;;;;;;5033236;28;20029;-70
2022/10/21 07:28:46;;;;;;;12.55;8.70;;;;;;;;;;5035162;28;20086;-70
2022/10/21 07:31:17;;;;;;;14.38;8.80;;;;;;;;;;5035642;28;20044;-67
2022/10/21 07:33:43;;;;;;;15.45;9.70;;;;;;;;;;5039734;28;20504;-68
2022/10/21 07:36:22;;;;;;;15.23;8.63;;;;;;;;;;5052388;28;20052;-69
2022/10/21 07:38:49;;;;;;;14.07;8.80;;;;;;;;;;5039074;28;20454;-68
2022/10/21 07:41:26;;;;;;;11.23;7.90;;;;;;;;;;5037078;28;20436;-68
2022/10/21 07:43:53;;;;;;;13.05;8.10;;;;;;;;;;5032973;28;20491;-68
2022/10/21 07:46:19;;;;;;;13.40;7.75;;;;;;;;;;5036324;28;20106;-68
2022/10/21 07:48:45;;;;;;;11.75;7.43;;;;;;;;;;5049733;28;20040;-68
2022/10/21 07:51:13;;;;;;;12.65;7.15;;;;;;;;;;5044474;28;20044;-68
2022/10/21 07:53:39;;;;;;;13.52;7.38;;;;;;;;;;5045200;28;20049;-70
2022/10/21 07:56:08;;;;;;;12.13;7.38;;;;;;;;;;5049820;28;20025;-68
2022/10/21 07:58:33;;;;;;;11.02;7.13;;;;;;;;;;5050262;28;20485;-68
2022/10/21 08:01:01;;;;;;;12.52;7.07;;;;;;;;;;5048479;28;20053;-69
2022/10/21 08:03:26;;;;;;;12.40;6.78;;;;;;;;;;5037864;28;20041;-69
2022/10/21 08:05:52;;;;;;;12.32;6.60;;;;;;;;;;5036878;28;20090;-69
2022/10/21 08:08:20;;;;;;;9.38;6.15;;;;;;;;;;5036151;28;20037;-69
2022/10/21 08:10:46;;;;;;;8.60;6.07;;;;;;;;;;5052984;28;20484;-70
2022/10/21 08:13:12;;;;;;;12.70;7.53;;;;;;;;;;5035898;28;20033;-70
2022/10/21 08:15:45;;;;;;;12.15;7.50;;;;;;;;;;5023982;28;20047;-70
2022/10/21 08:18:11;;;;;;;15.75;8.85;;;;;;;;;;5035189;28;20671;-69
2022/10/21 08:20:42;;;;;;;14.18;8.85;;;;;;;;;;5029490;28;20037;-70
2022/10/21 08:23:07;;;;;;;14.65;9.35;;;;;;;;;;5042756;28;20379;-69
2022/10/21 08:25:33;;;;;;;15.23;10.30;;;;;;;;;;5037571;28;20025;-68
2022/10/21 08:27:59;;;;;;;16.58;10.13;;;;;;;;;;5036913;28;20052;-70
2022/10/21 08:30:28;;;;;;;16.42;9.55;;;;;;;;;;5039712;28;20519;-69
2022/10/21 08:32:55;;;;;;;19.50;9.60;;;;;;;;;;5037147;28;20493;-70
2022/10/21 08:35:20;;;;;;;20.23;9.65;;;;;;;;;;5032148;28;20037;-70
2022/10/21 08:37:47;;;;;;;15.70;9.45;;;;;;;;;;5034387;28;20033;-70
2022/10/21 08:40:13;;;;;;;13.77;9.15;;;;;;;;;;5035241;28;20436;-68
2022/10/21 08:42:41;;;;;;;17.58;9.30;;;;;;;;;;5035754;28;20033;-70
2022/10/21 08:45:32;;;;;;;14.75;9.15;;;;;;;;;;5033980;28;20501;-70
2022/10/21 08:48:02;;;;;;;14.80;8.52;;;;;;;;;;5026444;28;20568;-70
2022/10/21 08:50:33;;;;;;;12.18;8.35;;;;;;;;;;5037420;28;20636;-70
2022/10/21 08:53:03;;;;;;;11.38;7.68;;;;;;;;;;5039171;28;20523;-68
2022/10/21 08:55:36;;;;;;;9.95;7.65;;;;;;;;;;5045710;28;20496;-69
2022/10/21 08:58:03;;;;;;;11.80;8.18;;;;;;;;;;5036068;28;20064;-69
2022/10/21 09:00:47;;;;;;;12.25;8.30;;;;;;;;;;5047179;28;20096;-68
2022/10/21 09:03:36;;;;;;;12.30;7.90;;;;;;;;;;5043572;28;20439;-68
2022/10/21 09:06:04;;;;;;;11.80;7.90;;;;;;;;;;5038689;28;20400;-68
2022/10/21 09:08:55;;;;;;;14.05;7.82;;;;;;;;;;5039586;28;20048;-68
2022/10/21 09:12:05;;;;;;;14.38;9.02;;;;;;;;;;5040188;28;20024;-68
2022/10/21 09:15:13;;;;;;;12.73;8.27;;;;;;;;;;5028440;28;20041;-68
2022/10/21 09:17:58;;;;;;;14.70;7.88;;;;;;;;;;4996272;28;20204;-69
2022/10/21 09:20:44;;;;;;;12.95;8.23;;;;;;;;;;4992134;28;21848;-69
2022/10/21 09:23:35;;;;;;;10.88;7.95;;;;;;;;;;5023481;28;20040;-70
2022/10/21 09:26:25;;;;;;;16.15;8.48;;;;;;;;;;5036178;28;20033;-69
2022/10/21 09:28:51;;;;;;;11.25;8.07;;;;;;;;;;5031001;28;20056;-68
2022/10/21 09:31:19;;;;;;;15.75;8.57;;;;;;;;;;5021553;28;20032;-70
2022/10/21 09:33:54;;;;;;;13.63;8.43;;;;;;;;;;5031234;28;20378;-68
2022/10/21 09:36:28;;;;;;;15.10;9.48;;;;;;;;;;5035717;28;20967;-67
2022/10/21 09:39:03;;;;;;;11.75;8.07;;;;;;;;;;5035616;28;20033;-70
2022/10/21 09:41:36;;;;;;;13.52;9.50;;;;;;;;;;5032193;28;20047;-67
2022/10/21 09:44:01;;;;;;;15.82;8.85;;;;;;;;;;5033775;28;20043;-67
2022/10/21 09:46:27;;;;;;;14.32;9.23;;;;;;;;;;5035198;28;20521;-70
2022/10/21 09:48:55;;;;;;;14.55;9.48;;;;;;;;;;5036656;28;20017;-69
2022/10/21 09:51:29;;;;;;;16.85;9.43;;;;;;;;;;5031341;28;20052;-69
2022/10/21 09:54:06;;;;;;;17.50;8.95;;;;;;;;;;5038808;28;20073;-69
2022/10/21 09:56:39;;;;;;;15.10;8.65;;;;;;;;;;5038225;28;20546;-69
2022/10/21 09:59:08;;;;;;;12.23;8.52;;;;;;;;;;5043203;28;20052;-71
2022/10/21 10:01:36;;;;;;;12.57;8.23;;;;;;;;;;5042698;28;20072;-70
2022/10/21 10:04:13;;;;;;;13.55;7.75;;;;;;;;;;5041077;28;20025;-69
2022/10/21 10:06:42;;;;;;;14.32;7.55;;;;;;;;;;5049898;28;20028;-70
2022/10/21 10:09:23;;;;;;;10.88;7.43;;;;;;;;;;5038107;28;20765;-71
2022/10/21 10:12:10;;;;;;;10.65;7.32;;;;;;;;;;5045122;28;20512;-71
2022/10/21 10:14:46;;;;;;;10.68;7.57;;;;;;;;;;5045694;28;20519;-70
2022/10/21 10:17:24;;;;;;;14.20;7.38;;;;;;;;;;5045840;28;20045;-70
2022/10/21 10:20:02;;;;;;;9.45;6.90;;;;;;;;;;5038606;28;20163;-70
2022/10/21 10:22:28;;;;;;;10.98;7.28;;;;;;;;;;5042761;28;20041;-71
2022/10/21 10:25:16;;;;;;;10.75;6.38;;;;;;;;;;5049149;28;20072;-72
2022/10/21 10:27:55;;;;;;;10.57;6.65;;;;;;;;;;5039760;28;20127;-72
2022/10/21 10:30:23;;;;;;;9.40;6.68;;;;;;;;;;5037563;28;20040;-71
2022/10/21 10:32:54;;;;;;;8.93;6.43;;;;;;;;;;5036327;28;20670;-71
2022/10/21 10:35:33;;;;;;;8.20;5.75;;;;;;;;;;5034813;28;20044;-71
2022/10/21 10:38:03;;;;;;;14.13;5.95;;;;;;;;;;5036733;28;20052;-70
2022/10/21 10:40:37;;;;;;;9.02;5.45;;;;;;;;;;5037103;28;20443;-70
2022/10/21 10:43:20;;;;;;;11.60;5.80;;;;;;;;;;5041924;28;20414;-71
2022/10/21 10:46:02;;;;;;;6.90;5.13;;;;;;;;;;5041387;28;20047;-71
2022/10/21 10:48:47;;;;;;;9.93;5.25;;;;;;;;;;5041327;28;20720;-70
2022/10/21 10:51:24;;;;;;;9.38;5.57;;;;;;;;;;5043899;28;20045;-70
2022/10/21 10:54:16;;;;;;;10.60;5.57;;;;;;;;;;5040715;28;20088;-71
2022/10/21 10:56:50;;;;;;;9.48;5.40;;;;;;;;;;5039495;28;20047;-70
2022/10/21 10:59:32;;;;;;;9.88;5.20;;;;;;;;;;5046500;28;20029;-69
2022/10/21 11:02:03;;;;;;;6.65;4.50;;;;;;;;;;5043135;28;20045;-69
2022/10/21 11:04:50;;;;;;;8.02;4.00;;;;;;;;;;5040621;28;20665;-71
2022/10/21 11:07:22;;;;;;;8.98;4.95;;;;;;;;;;5048105;28;20037;-70
2022/10/21 11:09:51;;;;;;;7.20;4.10;;;;;;;;;;5046110;28;20031;-70
2022/10/21 11:12:22;;;;;;;6.57;4.25;;;;;;;;;;5039109;28;20040;-70
2022/10/21 11:14:54;;;;;;;6.68;4.03;;;;;;;;;;5042835;28;20048;-70
2022/10/21 11:17:25;;;;;;;9.60;4.10;;;;;;;;;;5044347;28;20100;-71
2022/10/21 11:19:57;;;;;;;4.80;3.55;;;;;;;;;;5040153;28;20500;-71
2022/10/21 11:22:44;;;;;;;4.53;3.33;;;;;;;;;;5040060;28;20041;-71
2022/10/21 11:25:26;;;;;;;6.05;3.30;;;;;;;;;;5045284;28;20055;-71
2022/10/21 11:28:29;;;;;;;3.77;3.10;;;;;;;;;;5043471;28;20481;-70
2022/10/21 11:31:14;;;;;;;3.45;2.72;;;;;;;;;;5038797;28;20052;-70
2022/10/21 11:34:17;;;;;;;5.72;2.90;;;;;;;;;;5042197;28;20104;-70
2022/10/21 11:37:01;;;;;;;4.20;2.92;;;;;;;;;;5043201;28;20644;-71
2022/10/21 11:39:41;;;;;;;4.53;2.80;;;;;;;;;;5039424;28;20045;-69
2022/10/21 11:42:30;;;;;;;3.05;2.55;;;;;;;;;;5044053;28;20805;-69
2022/10/21 11:45:20;;;;;;;5.72;3.00;;;;;;;;;;5033433;28;20045;-70
2022/10/21 11:48:13;;;;;;;5.53;3.20;;;;;;;;;;5042601;28;20496;-70
2022/10/21 11:50:57;;;;;;;9.18;3.88;;;;;;;;;;5041230;28;20102;-70
2022/10/21 11:53:37;;;;;;;7.50;3.40;;;;;;;;;;5039007;28;20045;-70
2022/10/21 11:56:18;;;;;;;5.72;3.10;;;;;;;;;;5038003;28;20041;-70
2022/10/21 11:59:03;;;;;;;6.28;3.15;;;;;;;;;;5039689;28;20156;-71
2022/10/21 12:02:04;;;;;;;7.35;3.20;;;;;;;;;;5039644;28;20052;-68
2022/10/21 12:04:43;;;;;;;4.93;3.20;;;;;;;;;;5021955;28;20531;-68
2022/10/21 12:08:01;;;;;;;4.82;2.78;;;;;;;;;;5039040;28;20024;-68
2022/10/21 12:10:43;;;;;;;5.85;2.75;;;;;;;;;;5024407;28;20069;-70
2022/10/21 12:13:28;;;;;;;6.00;2.72;;;;;;;;;;5037644;28;20044;-70
2022/10/21 12:16:05;;;;;;;5.22;2.55;;;;;;;;;;5035764;28;20044;-68
2022/10/21 12:18:33;;;;;;;4.63;2.70;;;;;;;;;;5042408;28;20037;-69
2022/10/21 12:20:59;;;;;;;5.38;2.78;;;;;;;;;;5036215;28;20048;-69
2022/10/21 12:23:27;;;;;;;4.07;2.65;;;;;;;;;;5033417;28;20056;-70
2022/10/21 12:26:02;;;;;;;4.80;2.50;;;;;;;;;;5043833;28;20048;-69
2022/10/21 12:29:07;;;;;;;5.18;2.00;;;;;;;;;;5033011;28;20090;-69
2022/10/21 12:31:48;;;;;;;4.53;2.30;;;;;;;;;;5044330;28;20501;-69
2022/10/21 12:34:16;;;;;;;4.07;2.42;;;;;;;;;;5045428;28;20050;-70
2022/10/21 12:36:54;;;;;;;7.05;2.10;;;;;;;;;;5048320;28;20035;-69
2022/10/21 12:39:37;;;;;;;3.72;1.90;;;;;;;;;;5039725;28;20040;-68
2022/10/21 12:42:32;;;;;;;2.88;2.00;;;;;;;;;;5046256;28;20065;-68
2022/10/21 12:45:05;;;;;;;2.80;1.52;;;;;;;;;;5047017;28;20644;-69
2022/10/21 12:47:35;;;;;;;2.90;1.90;;;;;;;;;;5049774;28;20044;-68
2022/10/21 12:50:13;;;;;;;5.15;2.28;;;;;;;;;;5046825;28;20041;-69
2022/10/21 12:52:40;;;;;;;3.70;1.52;;;;;;;;;;5039893;28;20428;-68
2022/10/21 12:55:24;;;;;;;4.55;1.73;;;;;;;;;;5045384;28;20033;-68
2022/10/21 12:57:59;;;;;;;2.67;1.80;;;;;;;;;;5045899;28;20550;-69
2022/10/21 13:00:27;;;;;;;2.45;1.50;;;;;;;;;;5044539;28;20359;-71
2022/10/21 13:03:04;;;;;;;6.53;2.25;;;;;;;;;;5039135;28;20465;-70
2022/10/21 13:05:35;;;;;;;5.20;1.80;;;;;;;;;;5046353;28;20036;-70
2022/10/21 13:08:19;;;;;;;5.35;1.95;;;;;;;;;;5037660;28;20057;-70
2022/10/21 13:11:21;;;;;;;3.53;1.80;;;;;;;;;;5038983;28;20127;-70
2022/10/21 13:14:07;;;;;;;3.28;1.77;;;;;;;;;;5013125;28;20196;-70
2022/10/21 13:16:36;;;;;;;4.18;1.92;;;;;;;;;;5044982;28;20036;-69
2022/10/21 13:19:15;;;;;;;2.72;1.50;;;;;;;;;;5032846;28;20079;-69
2022/10/21 13:22:01;;;;;;;4.78;1.35;;;;;;;;;;5044251;28;20447;-69
2022/10/21 13:24:32;;;;;;;3.35;1.70;;;;;;;;;;5039167;28;20045;-70
2022/10/21 13:27:29;;;;;;;4.87;2.23;;;;;;;;;;5035427;28;20041;-70
2022/10/21 13:29:55;;;;;;;3.15;1.50;;;;;;;;;;5019849;28;20034;-69
2022/10/21 13:32:25;;;;;;;4.93;1.80;;;;;;;;;;5035604;28;20059;-69
2022/10/21 13:35:18;;;;;;;5.35;1.95;;;;;;;;;;5039663;28;20029;-70
2022/10/21 13:37:56;;;;;;;4.25;1.70;;;;;;;;;;5053278;28;20037;-71
2022/10/21 13:40:29;;;;;;;4.63;2.17;;;;;;;;;;5039432;28;20511;-70
2022/10/21 13:43:04;;;;;;;6.03;2.72;;;;;;;;;;5056738;28;20503;-70
2022/10/21 13:45:36;;;;;;;4.15;1.67;;;;;;;;;;5042282;28;20037;-70
2022/10/21 13:48:23;;;;;;;3.53;1.67;;;;;;;;;;5039390;28;20076;-70
2022/10/21 13:50:50;;;;;;;6.85;2.25;;;;;;;;;;5045485;28;20508;-70
2022/10/21 13:53:16;;;;;;;12.23;8.10;;;;;;;;;;5045329;28;20040;-69
2022/10/21 13:55:41;;;;;;;6.82;3.53;;;;;;;;;;5045572;28;20044;-70
2022/10/21 13:58:15;;;;;;;5.13;2.47;;;;;;;;;;5034485;28;20036;-68
2022/10/21 14:00:41;;;;;;;5.60;2.25;;;;;;;;;;5045710;28;20036;-71
2022/10/21 14:03:06;;;;;;;5.65;2.00;;;;;;;;;;5042948;28;20045;-72
2022/10/21 14:05:45;;;;;;;6.05;2.35;;;;;;;;;;5038011;28;20041;-69
2022/10/21 14:08:25;;;;;;;5.35;2.00;;;;;;;;;;5038740;28;20037;-72
2022/10/21 14:10:52;;;;;;;5.88;1.90;;;;;;;;;;5046710;28;20519;-72
2022/10/21 14:13:24;;;;;;;7.53;2.00;;;;;;;;;;5044641;28;20067;-69
2022/10/21 14:15:50;;;;;;;6.93;2.13;;;;;;;;;;5040821;28;20143;-71
2022/10/21 14:18:37;;;;;;;3.08;1.67;;;;;;;;;;5038996;28;20291;-71
2022/10/21 14:21:03;;;;;;;2.83;1.50;;;;;;;;;;5039281;28;20057;-71
2022/10/21 14:23:29;;;;;;;6.65;1.73;;;;;;;;;;5045697;28;20076;-70
2022/10/21 14:26:03;;;;;;;5.15;1.60;;;;;;;;;;5043977;28;20505;-70
2022/10/21 14:28:29;;;;;;;3.83;1.73;;;;;;;;;;5058541;28;20057;-71
2022/10/21 14:30:54;;;;;;;5.03;1.83;;;;;;;;;;5045410;28;20515;-71
2022/10/21 14:33:24;;;;;;;7.45;1.92;;;;;;;;;;5046845;28;20064;-70
2022/10/21 14:36:13;;;;;;;3.80;2.45;;;;;;;;;;5058871;28;20563;-69
2022/10/21 14:39:05;;;;;;;5.72;2.10;;;;;;;;;;5045779;28;20084;-70
2022/10/21 14:41:34;;;;;;;8.32;2.40;;;;;;;;;;5028546;28;20045;-70
2022/10/21 14:44:20;;;;;;;6.80;2.83;;;;;;;;;;5040638;28;20519;-70
2022/10/21 14:46:48;;;;;;;6.18;2.20;;;;;;;;;;5038758;28;20037;-70
2022/10/21 14:49:26;;;;;;;2.80;1.95;;;;;;;;;;5036443;28;20311;-68
2022/10/21 14:52:01;;;;;;;8.43;2.30;;;;;;;;;;5036390;28;20025;-70
2022/10/21 14:54:34;;;;;;;5.57;2.22;;;;;;;;;;5037285;28;20068;-68